Time,TemperatureF,DewpointF,PressureIn,WindDirection,WindDirectionDegrees,WindSpeedMPH,WindSpeedGustMPH,Humidity,HourlyPrecipIn,Conditions,Clouds,dailyrainin,SoftwareType,DateUTC
2013-10-19 00:00:00,46.3,35.9,29.55,West,267,1.0,3.0,67,0.00,,,0.49,Wunderground v.1.15,2013-10-19 04:00:00,
2013-10-19 00:05:00,46.2,35.8,29.55,WSW,242,3.0,5.0,67,0.00,,,0.00,Wunderground v.1.15,2013-10-19 04:05:00,
2013-10-19 00:10:00,46.2,35.8,29.56,West,259,3.0,3.0,67,0.00,,,0.00,Wunderground v.1.15,2013-10-19 04:10:00,
2013-10-19 00:15:00,46.1,36.1,29.56,WSW,242,3.0,3.0,68,0.00,,,0.00,Wunderground v.1.15,2013-10-19 04:15:00,
2013-10-19 00:20:00,46.0,36.0,29.55,WSW,252,2.0,2.0,68,0.00,,,0.00,Wunderground v.1.15,2013-10-19 04:20:00,
2013-10-19 00:30:00,46.1,36.1,29.55,West,280,4.0,4.0,68,0.00,,,0.00,Wunderground v.1.15,2013-10-19 04:30:00,
2013-10-19 00:35:00,46.1,36.1,29.55,WNW,293,5.0,7.0,68,0.00,,,0.00,Wunderground v.1.15,2013-10-19 04:35:00,
2013-10-19 00:40:00,46.3,35.9,29.55,West,281,6.0,6.0,67,0.00,,,0.00,Wunderground v.1.15,2013-10-19 04:40:00,
2013-10-19 00:45:00,46.2,36.2,29.55,WNW,283,6.0,6.0,68,0.00,,,0.00,Wunderground v.1.15,2013-10-19 04:45:00,
2013-10-19 00:55:00,46.0,36.0,29.56,WSW,248,5.0,7.0,68,0.00,,,0.00,Wunderground v.1.15,2013-10-19 04:55:00,
2013-10-19 01:00:00,46.1,36.5,29.56,WSW,258,6.0,6.0,69,0.00,,,0.00,Wunderground v.1.15,2013-10-19 05:00:00,
2013-10-19 01:10:00,46.0,36.4,29.56,West,263,5.0,8.0,69,0.00,,,0.00,Wunderground v.1.15,2013-10-19 05:10:00,
2013-10-19 01:20:00,45.9,36.3,29.56,West,263,5.0,6.0,69,0.00,,,0.00,Wunderground v.1.15,2013-10-19 05:20:00,
2013-10-19 01:30:00,45.9,36.3,29.56,WSW,254,5.0,6.0,69,0.00,,,0.00,Wunderground v.1.15,2013-10-19 05:30:00,
2013-10-19 01:40:00,45.7,36.5,29.55,WNW,284,5.0,5.0,70,0.00,,,0.00,Wunderground v.1.15,2013-10-19 05:40:00,
2013-10-19 01:50:00,45.4,36.5,29.55,WNW,297,4.0,5.0,71,0.00,,,0.00,Wunderground v.1.15,2013-10-19 05:50:00,
2013-10-19 01:55:00,45.4,36.5,29.55,West,280,4.0,5.0,71,0.00,,,0.00,Wunderground v.1.15,2013-10-19 05:55:00,
2013-10-19 02:00:00,45.5,36.6,29.55,West,272,5.0,6.0,71,0.00,,,0.00,Wunderground v.1.15,2013-10-19 06:00:00,
2013-10-19 02:10:00,45.5,36.6,29.56,West,273,4.0,4.0,71,0.00,,,0.00,Wunderground v.1.15,2013-10-19 06:10:00,
2013-10-19 02:20:00,45.2,36.4,29.56,West,262,3.0,4.0,71,0.00,,,0.00,Wunderground v.1.15,2013-10-19 06:20:00,
2013-10-19 02:30:00,44.7,36.6,29.56,WSW,249,4.0,4.0,73,0.00,,,0.00,Wunderground v.1.15,2013-10-19 06:30:00,
2013-10-19 02:40:00,43.8,36.4,29.56,WSW,248,3.0,3.0,75,0.00,,,0.00,Wunderground v.1.15,2013-10-19 06:40:00,
2013-10-19 02:50:00,43.4,36.3,29.56,NE,44,2.0,3.0,76,0.00,,,0.00,Wunderground v.1.15,2013-10-19 06:50:00,
2013-10-19 03:00:00,41.8,35.8,29.56,NNE,31,1.0,1.0,79,0.00,,,0.00,Wunderground v.1.15,2013-10-19 07:00:00,
2013-10-19 03:05:00,41.6,35.9,29.56,ESE,118,1.0,1.0,80,0.00,,,0.00,Wunderground v.1.15,2013-10-19 07:05:00,
2013-10-19 03:15:00,41.9,36.2,29.56,South,180,1.0,1.0,80,0.00,,,0.00,Wunderground v.1.15,2013-10-19 07:15:00,
2013-10-19 03:20:00,42.4,36.0,29.57,South,180,1.0,2.0,78,0.00,,,0.00,Wunderground v.1.15,2013-10-19 07:20:00,
2013-10-19 03:30:00,41.6,35.6,29.57,West,265,2.0,2.0,79,0.00,,,0.00,Wunderground v.1.15,2013-10-19 07:30:00,
2013-10-19 03:40:00,41.3,35.9,29.57,West,265,0.0,1.0,81,0.00,,,0.00,Wunderground v.1.15,2013-10-19 07:40:00,
2013-10-19 03:50:00,41.0,35.9,29.57,West,265,1.0,1.0,82,0.00,,,0.00,Wunderground v.1.15,2013-10-19 07:50:00,
2013-10-19 04:00:00,40.9,35.8,29.57,West,262,2.0,2.0,82,0.00,,,0.00,Wunderground v.1.15,2013-10-19 08:00:00,
2013-10-19 04:10:00,41.2,36.1,29.57,West,259,2.0,2.0,82,0.00,,,0.00,Wunderground v.1.15,2013-10-19 08:10:00,
2013-10-19 04:15:00,41.5,36.1,29.57,West,259,2.0,2.0,81,0.00,,,0.00,Wunderground v.1.15,2013-10-19 08:15:00,
2013-10-19 04:25:00,41.8,36.1,29.57,West,259,0.0,1.0,80,0.00,,,0.00,Wunderground v.1.15,2013-10-19 08:25:00,
2013-10-19 04:30:00,41.8,36.4,29.58,West,259,0.0,0.0,81,0.00,,,0.00,Wunderground v.1.15,2013-10-19 08:30:00,
2013-10-19 04:35:00,41.7,36.3,29.58,WSW,257,1.0,2.0,81,0.00,,,0.00,Wunderground v.1.15,2013-10-19 08:35:00,
2013-10-19 04:40:00,41.4,36.0,29.58,SW,223,1.0,1.0,81,0.00,,,0.00,Wunderground v.1.15,2013-10-19 08:40:00,
2013-10-19 04:50:00,41.2,36.1,29.58,SW,223,0.0,0.0,82,0.00,,,0.00,Wunderground v.1.15,2013-10-19 08:50:00,
2013-10-19 05:00:00,40.2,35.1,29.58,WNW,298,1.0,1.0,82,0.00,,,0.00,Wunderground v.1.15,2013-10-19 09:00:00,
2013-10-19 05:05:00,39.3,34.9,29.58,NW,305,1.0,2.0,84,0.00,,,0.00,Wunderground v.1.15,2013-10-19 09:05:00,
2013-10-19 05:10:00,38.7,34.9,29.58,NW,305,2.0,2.0,86,0.00,,,0.00,Wunderground v.1.15,2013-10-19 09:10:00,
2013-10-19 05:15:00,38.5,35.0,29.58,NW,305,2.0,2.0,87,0.00,,,0.00,Wunderground v.1.15,2013-10-19 09:15:00,
2013-10-19 05:20:00,38.8,35.6,29.58,NW,305,1.0,1.0,88,0.00,,,0.00,Wunderground v.1.15,2013-10-19 09:20:00,
2013-10-19 05:25:00,39.2,35.7,29.58,NW,305,0.0,1.0,87,0.00,,,0.00,Wunderground v.1.15,2013-10-19 09:25:00,
2013-10-19 05:30:00,39.5,35.7,29.59,NW,305,1.0,1.0,86,0.00,,,0.00,Wunderground v.1.15,2013-10-19 09:30:00,
2013-10-19 05:40:00,39.5,35.7,29.59,NW,305,0.0,0.0,86,0.00,,,0.00,Wunderground v.1.15,2013-10-19 09:40:00,
2013-10-19 05:50:00,40.1,36.0,29.59,NW,305,0.0,0.0,85,0.00,,,0.00,Wunderground v.1.15,2013-10-19 09:50:00,
2013-10-19 06:00:00,40.4,35.9,29.59,SSW,207,1.0,1.0,84,0.00,,,0.00,Wunderground v.1.15,2013-10-19 10:00:00,
2013-10-19 06:10:00,40.2,35.8,29.59,SSW,207,0.0,0.0,84,0.00,,,0.00,Wunderground v.1.15,2013-10-19 10:10:00,
2013-10-19 06:20:00,39.7,35.6,29.60,SSW,207,0.0,0.0,85,0.00,,,0.00,Wunderground v.1.15,2013-10-19 10:20:00,
2013-10-19 06:30:00,39.6,35.8,29.59,SSW,207,0.0,0.0,86,0.00,,,0.00,Wunderground v.1.15,2013-10-19 10:30:00,
2013-10-19 06:40:00,39.4,35.6,29.60,SSW,207,0.0,1.0,86,0.00,,,0.00,Wunderground v.1.15,2013-10-19 10:40:00,
2013-10-19 06:50:00,39.5,36.0,29.60,SSW,207,0.0,0.0,87,0.00,,,0.00,Wunderground v.1.15,2013-10-19 10:50:00,
2013-10-19 06:55:00,39.6,35.8,29.60,SSW,207,0.0,1.0,86,0.00,,,0.00,Wunderground v.1.15,2013-10-19 10:55:00,
2013-10-19 07:00:00,39.7,36.1,29.60,SSW,207,0.0,0.0,87,0.00,,,0.00,Wunderground v.1.15,2013-10-19 11:00:00,
2013-10-19 07:10:00,40.2,36.3,29.60,SSW,207,0.0,0.0,86,0.00,,,0.00,Wunderground v.1.15,2013-10-19 11:10:00,
2013-10-19 07:20:00,40.8,36.6,29.60,SSW,207,1.0,1.0,85,0.00,,,0.00,Wunderground v.1.15,2013-10-19 11:20:00,
2013-10-19 07:30:00,40.8,36.6,29.60,SSW,207,0.0,0.0,85,0.00,,,0.00,Wunderground v.1.15,2013-10-19 11:30:00,
2013-10-19 07:40:00,40.8,36.6,29.60,SSW,207,0.0,0.0,85,0.00,,,0.00,Wunderground v.1.15,2013-10-19 11:40:00,
2013-10-19 07:50:00,40.8,36.6,29.60,SSW,207,0.0,0.0,85,0.00,,,0.00,Wunderground v.1.15,2013-10-19 11:50:00,
2013-10-19 08:00:00,40.6,36.4,29.60,NNW,343,1.0,1.0,85,0.00,,,0.00,Wunderground v.1.15,2013-10-19 12:00:00,
2013-10-19 08:05:00,40.3,36.7,29.60,NNW,343,1.0,1.0,87,0.00,,,0.00,Wunderground v.1.15,2013-10-19 12:05:00,
2013-10-19 08:10:00,40.8,37.2,29.60,NNW,343,0.0,0.0,87,0.00,,,0.00,Wunderground v.1.15,2013-10-19 12:10:00,
2013-10-19 08:20:00,42.3,39.0,29.60,NNW,343,0.0,0.0,88,0.00,,,0.00,Wunderground v.1.15,2013-10-19 12:20:00,
2013-10-19 08:25:00,42.4,38.5,29.60,NNW,343,0.0,0.0,86,0.00,,,0.00,Wunderground v.1.15,2013-10-19 12:25:00,
2013-10-19 08:35:00,42.9,39.3,29.60,NNW,343,0.0,0.0,87,0.00,,,0.00,Wunderground v.1.15,2013-10-19 12:35:00,
2013-10-19 08:40:00,42.9,39.0,29.60,NNW,343,0.0,0.0,86,0.00,,,0.00,Wunderground v.1.15,2013-10-19 12:40:00,
2013-10-19 08:50:00,43.7,39.8,29.60,NNW,343,0.0,0.0,86,0.00,,,0.00,Wunderground v.1.15,2013-10-19 12:50:00,
2013-10-19 09:00:00,45.1,40.9,29.60,NNW,343,0.0,0.0,85,0.00,,,0.00,Wunderground v.1.15,2013-10-19 13:00:00,
2013-10-19 09:10:00,45.4,40.8,29.61,NNW,343,0.0,0.0,84,0.00,,,0.00,Wunderground v.1.15,2013-10-19 13:10:00,
2013-10-19 09:20:00,45.5,41.6,29.60,NNW,343,0.0,1.0,86,0.00,,,0.00,Wunderground v.1.15,2013-10-19 13:20:00,
2013-10-19 09:30:00,46.3,41.7,29.60,NNW,343,0.0,0.0,84,0.00,,,0.00,Wunderground v.1.15,2013-10-19 13:30:00,
2013-10-19 09:40:00,47.4,41.2,29.60,East,83,1.0,2.0,79,0.00,,,0.00,Wunderground v.1.15,2013-10-19 13:40:00,
2013-10-19 09:50:00,48.6,42.7,29.60,ESE,118,1.0,2.0,80,0.00,,,0.00,Wunderground v.1.15,2013-10-19 13:50:00,
2013-10-19 09:55:00,49.2,43.3,29.60,SSE,157,1.0,2.0,80,0.00,,,0.00,Wunderground v.1.15,2013-10-19 13:55:00,
2013-10-19 10:00:00,49.6,43.4,29.59,SSE,167,1.0,1.0,79,0.00,,,0.00,Wunderground v.1.15,2013-10-19 14:00:00,
2013-10-19 10:10:00,50.1,42.8,29.60,SE,138,2.0,2.0,76,0.00,,,0.00,Wunderground v.1.15,2013-10-19 14:10:00,
2013-10-19 10:20:00,50.7,43.4,29.59,South,187,2.0,2.0,76,0.00,,,0.00,Wunderground v.1.15,2013-10-19 14:20:00,
2013-10-19 10:30:00,52.0,43.6,29.59,South,171,1.0,2.0,73,0.00,,,0.00,Wunderground v.1.15,2013-10-19 14:30:00,
2013-10-19 10:40:00,52.4,43.6,29.59,SE,124,2.0,3.0,72,0.00,,,0.00,Wunderground v.1.15,2013-10-19 14:40:00,
2013-10-19 10:50:00,52.7,44.6,29.58,SE,132,2.0,4.0,74,0.00,,,0.00,Wunderground v.1.15,2013-10-19 14:50:00,
2013-10-19 11:00:00,53.4,45.0,29.58,South,183,3.0,4.0,73,0.00,,,0.00,Wunderground v.1.15,2013-10-19 15:00:00,
2013-10-19 11:10:00,53.5,45.1,29.58,SE,130,2.0,2.0,73,0.00,,,0.00,Wunderground v.1.15,2013-10-19 15:10:00,
2013-10-19 11:15:00,53.7,46.0,29.58,ESE,121,2.0,4.0,75,0.00,,,0.00,Wunderground v.1.15,2013-10-19 15:15:00,
2013-10-19 11:20:00,54.1,44.9,29.58,SE,140,2.0,4.0,71,0.00,,,0.00,Wunderground v.1.15,2013-10-19 15:20:00,
2013-10-19 11:30:00,54.7,45.1,29.58,SE,139,4.0,4.0,70,0.00,,,0.00,Wunderground v.1.15,2013-10-19 15:30:00,
2013-10-19 11:40:00,55.1,45.1,29.58,South,191,3.0,4.0,69,0.00,,,0.00,Wunderground v.1.15,2013-10-19 15:40:00,
2013-10-19 11:50:00,56.1,47.2,29.58,South,176,2.0,2.0,72,0.00,,,0.00,Wunderground v.1.15,2013-10-19 15:50:00,
2013-10-19 12:00:00,56.6,46.2,29.58,SE,140,3.0,3.0,68,0.00,,,0.00,Wunderground v.1.15,2013-10-19 16:00:00,
2013-10-19 12:10:00,57.1,46.2,29.57,South,177,3.0,3.0,67,0.00,,,0.00,Wunderground v.1.15,2013-10-19 16:10:00,
2013-10-19 12:20:00,57.7,46.4,29.56,ESE,114,3.0,4.0,66,0.00,,,0.00,Wunderground v.1.15,2013-10-19 16:20:00,
2013-10-19 12:30:00,58.2,46.5,29.56,East,91,3.0,6.0,65,0.00,,,0.00,Wunderground v.1.15,2013-10-19 16:30:00,
2013-10-19 12:35:00,58.3,47.0,29.55,SE,133,3.0,6.0,66,0.00,,,0.00,Wunderground v.1.15,2013-10-19 16:35:00,
2013-10-19 12:40:00,58.5,46.8,29.55,SSE,155,3.0,4.0,65,0.00,,,0.00,Wunderground v.1.15,2013-10-19 16:40:00,
2013-10-19 12:45:00,58.4,47.5,29.55,SSE,150,3.0,4.0,67,0.00,,,0.00,Wunderground v.1.15,2013-10-19 16:45:00,
2013-10-19 12:50:00,58.5,45.1,29.55,SE,128,4.0,4.0,61,0.00,,,0.00,Wunderground v.1.15,2013-10-19 16:50:00,
2013-10-19 12:55:00,58.4,47.1,29.54,SE,145,4.0,4.0,66,0.00,,,0.00,Wunderground v.1.15,2013-10-19 16:55:00,
2013-10-19 13:00:00,58.6,46.9,29.54,SE,132,3.0,4.0,65,0.00,,,0.00,Wunderground v.1.15,2013-10-19 17:00:00,
2013-10-19 13:05:00,58.6,47.3,29.54,SE,140,3.0,4.0,66,0.00,,,0.00,Wunderground v.1.15,2013-10-19 17:05:00,
2013-10-19 13:10:00,58.9,46.3,29.53,South,181,3.0,4.0,63,0.00,,,0.00,Wunderground v.1.15,2013-10-19 17:10:00,
2013-10-19 13:20:00,58.5,45.5,29.53,SE,142,4.0,4.0,62,0.00,,,0.00,Wunderground v.1.15,2013-10-19 17:20:00,
2013-10-19 13:25:00,58.4,45.0,29.53,ESE,116,3.0,4.0,61,0.00,,,0.00,Wunderground v.1.15,2013-10-19 17:25:00,
2013-10-19 13:30:00,57.8,46.1,29.53,ESE,122,3.0,3.0,65,0.00,,,0.00,Wunderground v.1.15,2013-10-19 17:30:00,
2013-10-19 13:35:00,57.7,46.4,29.53,ESE,103,3.0,3.0,66,0.00,,,0.00,Wunderground v.1.15,2013-10-19 17:35:00,
2013-10-19 13:45:00,58.9,45.9,29.53,SE,144,4.0,5.0,62,0.00,,,0.00,Wunderground v.1.15,2013-10-19 17:45:00,
2013-10-19 13:50:00,59.1,46.5,29.53,SSE,148,4.0,4.0,63,0.00,,,0.00,Wunderground v.1.15,2013-10-19 17:50:00,
2013-10-19 13:55:00,58.9,42.3,29.52,SW,218,4.0,4.0,54,0.00,,,0.00,Wunderground v.1.15,2013-10-19 17:55:00,
2013-10-19 14:05:00,59.1,43.9,29.52,SSW,202,3.0,3.0,57,0.00,,,0.00,Wunderground v.1.15,2013-10-19 18:05:00,
2013-10-19 14:15:00,59.0,43.3,29.52,South,176,4.0,6.0,56,0.00,,,0.00,Wunderground v.1.15,2013-10-19 18:15:00,
2013-10-19 14:20:00,59.0,42.8,29.53,SSW,200,4.0,6.0,55,0.00,,,0.00,Wunderground v.1.15,2013-10-19 18:20:00,
2013-10-19 14:25:00,58.8,42.7,29.52,SSW,210,5.0,6.0,55,0.00,,,0.00,Wunderground v.1.15,2013-10-19 18:25:00,
2013-10-19 14:35:00,58.8,43.1,29.52,South,178,6.0,6.0,56,0.00,,,0.00,Wunderground v.1.15,2013-10-19 18:35:00,
2013-10-19 14:40:00,59.1,42.5,29.52,South,185,5.0,5.0,54,0.00,,,0.00,Wunderground v.1.15,2013-10-19 18:40:00,
2013-10-19 14:45:00,59.2,42.6,29.52,South,182,6.0,6.0,54,0.00,,,0.00,Wunderground v.1.15,2013-10-19 18:45:00,
2013-10-19 14:50:00,59.2,44.0,29.52,South,174,6.0,6.0,57,0.00,,,0.00,Wunderground v.1.15,2013-10-19 18:50:00,
2013-10-19 14:55:00,59.2,44.0,29.52,South,173,5.0,8.0,57,0.00,,,0.00,Wunderground v.1.15,2013-10-19 18:55:00,
2013-10-19 15:00:00,59.1,43.4,29.52,South,184,5.0,5.0,56,0.00,,,0.00,Wunderground v.1.15,2013-10-19 19:00:00,
2013-10-19 15:10:00,58.5,43.8,29.52,South,191,4.0,4.0,58,0.00,,,0.00,Wunderground v.1.15,2013-10-19 19:10:00,
2013-10-19 15:20:00,57.9,45.0,29.52,ESE,121,4.0,4.0,62,0.00,,,0.00,Wunderground v.1.15,2013-10-19 19:20:00,
2013-10-19 15:25:00,57.6,45.1,29.52,SE,141,3.0,4.0,63,0.00,,,0.00,Wunderground v.1.15,2013-10-19 19:25:00,
2013-10-19 15:30:00,57.1,45.4,29.52,ESE,122,2.0,5.0,65,0.00,,,0.00,Wunderground v.1.15,2013-10-19 19:30:00,
2013-10-19 15:35:00,56.9,46.1,29.50,SE,130,2.0,5.0,67,0.00,,,0.00,Wunderground v.1.15,2013-10-19 19:35:00,
2013-10-19 15:40:00,56.6,45.8,29.50,SE,132,2.0,4.0,67,0.00,,,0.00,Wunderground v.1.15,2013-10-19 19:40:00,
2013-10-19 15:45:00,56.5,46.1,29.50,SE,139,2.0,4.0,68,0.00,,,0.00,Wunderground v.1.15,2013-10-19 19:45:00,
2013-10-19 15:50:00,56.4,45.2,29.50,SE,133,1.0,1.0,66,0.00,,,0.00,Wunderground v.1.15,2013-10-19 19:50:00,
2013-10-19 15:55:00,56.4,46.0,29.49,SE,132,1.0,1.0,68,0.00,,,0.00,Wunderground v.1.15,2013-10-19 19:55:00,
2013-10-19 16:00:00,56.3,45.5,29.49,ESE,123,1.0,1.0,67,0.00,,,0.00,Wunderground v.1.15,2013-10-19 20:00:00,
2013-10-19 16:05:00,56.4,46.0,29.49,SE,129,1.0,1.0,68,0.00,,,0.00,Wunderground v.1.15,2013-10-19 20:05:00,
2013-10-19 16:10:00,56.4,46.4,29.49,South,169,1.0,1.0,69,0.00,,,0.00,Wunderground v.1.15,2013-10-19 20:10:00,
2013-10-19 16:15:00,56.4,46.0,29.49,South,169,2.0,3.0,68,0.00,,,0.00,Wunderground v.1.15,2013-10-19 20:15:00,
2013-10-19 16:20:00,56.3,45.9,29.49,South,182,3.0,5.0,68,0.00,,,0.00,Wunderground v.1.15,2013-10-19 20:20:00,
2013-10-19 16:25:00,56.2,46.2,29.50,South,174,3.0,5.0,69,0.00,,,0.00,Wunderground v.1.15,2013-10-19 20:25:00,
2013-10-19 16:30:00,56.0,46.0,29.49,South,169,2.0,2.0,69,0.00,,,0.00,Wunderground v.1.15,2013-10-19 20:30:00,
2013-10-19 16:35:00,55.9,45.9,29.49,South,172,1.0,2.0,69,0.00,,,0.00,Wunderground v.1.15,2013-10-19 20:35:00,
2013-10-19 16:40:00,55.7,46.4,29.49,SE,133,1.0,1.0,71,0.00,,,0.00,Wunderground v.1.15,2013-10-19 20:40:00,
2013-10-19 16:50:00,55.4,45.8,29.48,SE,134,0.0,1.0,70,0.00,,,0.00,Wunderground v.1.15,2013-10-19 20:50:00,
2013-10-19 16:55:00,55.3,45.7,29.48,SE,134,0.0,1.0,70,0.00,,,0.00,Wunderground v.1.15,2013-10-19 20:55:00,
2013-10-19 17:00:00,55.1,45.5,29.48,South,175,1.0,1.0,70,0.00,,,0.00,Wunderground v.1.15,2013-10-19 21:00:00,
2013-10-19 17:10:00,54.8,45.9,29.48,SSW,196,0.0,0.0,72,0.00,,,0.00,Wunderground v.1.15,2013-10-19 21:10:00,
2013-10-19 17:15:00,54.7,45.8,29.48,South,182,1.0,2.0,72,0.00,,,0.00,Wunderground v.1.15,2013-10-19 21:15:00,
2013-10-19 17:20:00,54.7,45.5,29.48,South,185,1.0,2.0,71,0.00,,,0.00,Wunderground v.1.15,2013-10-19 21:20:00,
2013-10-19 17:25:00,54.7,45.5,29.47,South,176,2.0,2.0,71,0.00,,,0.00,Wunderground v.1.15,2013-10-19 21:25:00,
2013-10-19 17:30:00,54.6,45.4,29.47,SSW,211,1.0,6.0,71,0.00,,,0.00,Wunderground v.1.15,2013-10-19 21:30:00,
2013-10-19 17:35:00,54.4,45.2,29.47,SSW,206,1.0,6.0,71,0.00,,,0.00,Wunderground v.1.15,2013-10-19 21:35:00,
2013-10-19 17:40:00,54.3,45.1,29.47,South,188,2.0,4.0,71,0.00,,,0.00,Wunderground v.1.15,2013-10-19 21:40:00,
2013-10-19 17:50:00,54.1,45.3,29.47,South,175,3.0,4.0,72,0.00,,,0.00,Wunderground v.1.15,2013-10-19 21:50:00,
2013-10-19 18:00:00,53.9,45.1,29.47,South,191,3.0,4.0,72,0.00,,,0.00,Wunderground v.1.15,2013-10-19 22:00:00,
2013-10-19 18:05:00,53.8,45.3,29.47,South,188,3.0,4.0,73,0.00,,,0.00,Wunderground v.1.15,2013-10-19 22:05:00,
2013-10-19 18:10:00,53.7,45.2,29.46,South,188,3.0,3.0,73,0.00,,,0.00,Wunderground v.1.15,2013-10-19 22:10:00,
2013-10-19 18:20:00,53.6,44.8,29.47,SSE,161,2.0,2.0,72,0.00,,,0.00,Wunderground v.1.15,2013-10-19 22:20:00,
2013-10-19 18:30:00,53.7,44.9,29.47,SSW,207,0.0,1.0,72,0.00,,,0.00,Wunderground v.1.15,2013-10-19 22:30:00,
2013-10-19 18:40:00,53.7,44.9,29.46,SSW,207,0.0,0.0,72,0.00,,,0.00,Wunderground v.1.15,2013-10-19 22:40:00,
2013-10-19 18:50:00,53.2,45.1,29.45,SSW,207,0.0,0.0,74,0.00,,,0.00,Wunderground v.1.15,2013-10-19 22:50:00,
2013-10-19 19:00:00,52.9,44.8,29.45,SSW,207,0.0,0.0,74,0.00,,,0.00,Wunderground v.1.15,2013-10-19 23:00:00,
2013-10-19 19:05:00,52.9,44.8,29.45,South,178,0.0,0.0,74,0.00,,,0.00,Wunderground v.1.15,2013-10-19 23:05:00,
2013-10-19 19:10:00,52.9,44.8,29.44,South,178,1.0,1.0,74,0.00,,,0.00,Wunderground v.1.15,2013-10-19 23:10:00,
2013-10-19 19:15:00,52.9,44.5,29.44,South,178,0.0,1.0,73,0.00,,,0.00,Wunderground v.1.15,2013-10-19 23:15:00,
2013-10-19 19:25:00,52.8,44.7,29.44,South,178,0.0,0.0,74,0.00,,,0.00,Wunderground v.1.15,2013-10-19 23:25:00,
2013-10-19 19:30:00,52.7,44.6,29.44,South,178,0.0,0.0,74,0.00,,,0.00,Wunderground v.1.15,2013-10-19 23:30:00,
2013-10-19 19:35:00,52.6,44.5,29.43,South,177,0.0,0.0,74,0.00,,,0.00,Wunderground v.1.15,2013-10-19 23:35:00,
2013-10-19 19:45:00,52.4,44.7,29.43,SSE,166,1.0,1.0,75,0.00,,,0.00,Wunderground v.1.15,2013-10-19 23:45:00,
2013-10-19 19:50:00,52.4,44.0,29.43,SSE,157,1.0,1.0,73,0.00,,,0.00,Wunderground v.1.15,2013-10-19 23:50:00,
2013-10-19 20:00:00,52.6,44.2,29.42,SSW,193,1.0,2.0,73,0.00,,,0.00,Wunderground v.1.15,2013-10-20 00:00:00,
2013-10-19 20:10:00,52.8,43.7,29.42,SSW,194,2.0,4.0,71,0.00,,,0.00,Wunderground v.1.15,2013-10-20 00:10:00,
2013-10-19 20:15:00,53.0,43.1,29.42,SSW,193,3.0,9.0,69,0.00,,,0.00,Wunderground v.1.15,2013-10-20 00:15:00,
2013-10-19 20:25:00,53.5,42.8,29.41,South,175,6.0,10.0,67,0.00,,,0.00,Wunderground v.1.15,2013-10-20 00:25:00,
2013-10-19 20:30:00,53.6,42.5,29.41,SW,224,7.0,7.0,66,0.00,,,0.00,Wunderground v.1.15,2013-10-20 00:30:00,
2013-10-19 20:40:00,53.7,42.6,29.41,South,187,8.0,8.0,66,0.00,,,0.00,Wunderground v.1.15,2013-10-20 00:40:00,
2013-10-19 20:45:00,53.6,42.1,29.41,South,185,8.0,17.0,65,0.00,,,0.00,Wunderground v.1.15,2013-10-20 00:45:00,
2013-10-19 20:50:00,53.7,42.6,29.41,South,178,9.0,9.0,66,0.00,,,0.00,Wunderground v.1.15,2013-10-20 00:50:00,
2013-10-19 21:00:00,53.6,41.7,29.40,SSE,155,8.0,8.0,64,0.00,,,0.00,Wunderground v.1.15,2013-10-20 01:00:00,
2013-10-19 21:10:00,53.6,41.7,29.40,SSW,205,8.0,8.0,64,0.00,,,0.00,Wunderground v.1.15,2013-10-20 01:10:00,
2013-10-19 21:15:00,53.5,42.0,29.40,South,190,8.0,10.0,65,0.00,,,0.00,Wunderground v.1.15,2013-10-20 01:15:00,
2013-10-19 21:20:00,53.4,41.5,29.40,South,177,8.0,10.0,64,0.00,,,0.00,Wunderground v.1.15,2013-10-20 01:20:00,
2013-10-19 21:30:00,53.2,41.3,29.40,SSW,194,8.0,8.0,64,0.00,,,0.00,Wunderground v.1.15,2013-10-20 01:30:00,
2013-10-19 21:40:00,53.2,41.7,29.40,South,169,7.0,7.0,65,0.00,,,0.00,Wunderground v.1.15,2013-10-20 01:40:00,
2013-10-19 21:50:00,52.8,41.4,29.39,South,173,6.0,8.0,65,0.00,,,0.00,Wunderground v.1.15,2013-10-20 01:50:00,
2013-10-19 22:00:00,52.7,41.3,29.40,South,178,6.0,6.0,65,0.00,,,0.00,Wunderground v.1.15,2013-10-20 02:00:00,
2013-10-19 22:10:00,52.4,41.4,29.40,South,183,5.0,5.0,66,0.00,,,0.00,Wunderground v.1.15,2013-10-20 02:10:00,
2013-10-19 22:20:00,52.6,41.2,29.40,South,190,6.0,9.0,65,0.00,,,0.00,Wunderground v.1.15,2013-10-20 02:20:00,
2013-10-19 22:30:00,52.6,40.8,29.39,SSW,213,6.0,8.0,64,0.00,,,0.00,Wunderground v.1.15,2013-10-20 02:30:00,
2013-10-19 22:40:00,52.5,41.1,29.40,SSW,203,7.0,8.0,65,0.00,,,0.00,Wunderground v.1.15,2013-10-20 02:40:00,
2013-10-19 22:50:00,52.0,41.8,29.39,SW,216,7.0,11.0,68,0.00,,,0.00,Wunderground v.1.15,2013-10-20 02:50:00,
2013-10-19 23:00:00,51.4,41.9,29.39,SSE,150,7.0,7.0,70,0.00,,,0.00,Wunderground v.1.15,2013-10-20 03:00:00,
2013-10-19 23:10:00,50.3,43.4,29.39,SSW,197,7.0,7.0,77,0.00,,,0.01,Wunderground v.1.15,2013-10-20 03:10:00,
2013-10-19 23:20:00,49.4,43.5,29.39,South,184,5.0,7.0,80,0.00,,,0.01,Wunderground v.1.15,2013-10-20 03:20:00,
2013-10-19 23:25:00,49.1,43.5,29.38,South,183,5.0,7.0,81,0.00,,,0.01,Wunderground v.1.15,2013-10-20 03:25:00,
2013-10-19 23:30:00,48.8,43.9,29.38,SW,225,4.0,5.0,83,0.00,,,0.01,Wunderground v.1.15,2013-10-20 03:30:00,
2013-10-19 23:40:00,48.2,43.9,29.38,SSW,207,4.0,4.0,85,0.00,,,0.02,Wunderground v.1.15,2013-10-20 03:40:00,
2013-10-19 23:50:00,47.6,43.9,29.37,SSW,202,3.0,3.0,87,0.05,,,0.03,Wunderground v.1.15,2013-10-20 03:50:00,